Terminal Aerodrome Forecast
Issued by NWS

Home | Current Version | Previous Version | Text Only | Print | Product List | Glossary On
Versions: 1 2 3 4 5 6 7 8 9 10 11 12 13 14 15 16 17 18 19
000
FTAK31 PAJN 260500
TAFAPG
TAF
PAPG 260525Z 2606/2706 22003KT 6SM BR SCT005 SCT025 BKN050
      TEMPO 2606/2610 4SM BR
     FM261100 22003KT P6SM SCT025 SCT050
     FM261900 35008KT P6SM SCT050 SCT100
     FM270200 22004KT P6SM SKC
      AMD LTD TO CLD VIS AND WIND 2606/2615=

USA.gov is the U.S. government's official web portal to all federal, state and local government web resources and services.